createdAt,value
2018-05-29T00:02:17.971Z,2.87
2018-05-29T00:04:45.451Z,2.27
2018-05-29T00:07:12.926Z,2.90
2018-05-29T00:09:40.400Z,3.00
2018-05-29T00:12:07.867Z,2.43
2018-05-29T00:14:35.706Z,2.33
2018-05-29T00:17:04.291Z,2.77
2018-05-29T00:19:32.865Z,2.90
2018-05-29T00:22:00.986Z,3.00
2018-05-29T00:24:29.013Z,3.30
2018-05-29T00:26:57.848Z,3.07
2018-05-29T00:29:25.530Z,2.67
2018-05-29T00:31:53.166Z,2.63
2018-05-29T00:34:20.880Z,2.23
2018-05-29T00:36:49.193Z,2.77
2018-05-29T00:39:17.465Z,2.90
2018-05-29T00:41:44.975Z,2.80
2018-05-29T00:44:12.455Z,2.83
2018-05-29T00:46:40.691Z,2.77
2018-05-29T00:49:08.927Z,2.80
2018-05-29T00:51:36.488Z,2.80
2018-05-29T00:54:04.662Z,3.47
2018-05-29T00:56:32.738Z,2.90
2018-05-29T00:59:00.415Z,2.73
2018-05-29T01:01:30.186Z,2.50
2018-05-29T01:03:57.980Z,2.83
2018-05-29T01:06:26.328Z,2.70
2018-05-29T01:08:53.797Z,2.73
2018-05-29T01:11:21.464Z,3.37
2018-05-29T01:13:49.123Z,3.10
2018-05-29T01:16:16.591Z,3.10
2018-05-29T01:18:44.074Z,2.90
2018-05-29T01:21:11.534Z,3.17
2018-05-29T01:23:39.016Z,2.97
2018-05-29T01:26:06.645Z,3.00
2018-05-29T01:28:34.324Z,2.83
2018-05-29T01:31:02.256Z,2.60
2018-05-29T01:33:30.030Z,3.40
2018-05-29T01:35:59.430Z,2.90
2018-05-29T01:38:28.180Z,3.30
2018-05-29T01:40:57.118Z,3.10
2018-05-29T01:43:24.622Z,3.60
2018-05-29T01:45:52.243Z,2.87
2018-05-29T01:48:19.985Z,2.70
2018-05-29T01:50:47.579Z,3.20
2018-05-29T01:53:15.054Z,2.70
2018-05-29T01:55:42.527Z,3.23
2018-05-29T01:58:10.003Z,3.27
2018-05-29T02:00:37.650Z,2.90
2018-05-29T02:03:05.239Z,2.40
2018-05-29T02:05:33.307Z,3.47
2018-05-29T02:08:01.440Z,2.60
2018-05-29T02:10:30.220Z,3.83
2018-05-29T02:12:59.326Z,2.77
2018-05-29T02:15:28.018Z,3.83
2018-05-29T02:17:55.737Z,3.27
2018-05-29T02:20:23.370Z,3.50
2018-05-29T02:22:50.969Z,3.10
2018-05-29T02:25:18.457Z,3.43
2018-05-29T02:27:45.927Z,3.73
2018-05-29T02:30:13.394Z,3.60
2018-05-29T02:32:41.631Z,4.00
2018-05-29T02:35:09.111Z,3.47
2018-05-29T02:37:36.739Z,3.43
2018-05-29T02:40:04.655Z,3.23
2018-05-29T02:42:32.605Z,3.43
2018-05-29T02:45:00.610Z,3.43
2018-05-29T02:47:28.596Z,3.77
2018-05-29T02:49:56.217Z,3.90
2018-05-29T02:52:24.451Z,3.73
2018-05-29T02:54:52.199Z,3.60
2018-05-29T02:57:20.709Z,4.03
2018-05-29T02:59:48.236Z,4.30
2018-05-29T03:02:15.698Z,4.80
2018-05-29T03:04:43.182Z,3.80
2018-05-29T03:07:10.659Z,4.17
2018-05-29T03:09:38.144Z,3.93
2018-05-29T03:12:05.693Z,4.50
2018-05-29T03:14:33.434Z,4.27
2018-05-29T03:17:01.293Z,5.13
2018-05-29T03:19:29.299Z,4.80
2018-05-29T03:21:56.885Z,4.23
2018-05-29T03:24:26.098Z,4.70
2018-05-29T03:26:54.331Z,3.97
2018-05-29T03:29:21.891Z,4.43
2018-05-29T03:31:49.574Z,5.20
2018-05-29T03:34:17.087Z,4.10
2018-05-29T03:36:44.549Z,4.37
2018-05-29T03:39:12.035Z,4.30
2018-05-29T03:41:39.511Z,3.77
2018-05-29T03:44:07.223Z,5.40
2018-05-29T03:46:35.100Z,5.03
2018-05-29T03:49:04.554Z,4.20
2018-05-29T03:51:33.281Z,4.77
2018-05-29T03:54:00.989Z,4.83
2018-05-29T03:56:31.996Z,5.10
2018-05-29T03:58:59.877Z,4.90
2018-05-29T04:01:27.782Z,5.50
2018-05-29T04:03:55.394Z,4.70
2018-05-29T04:06:23.406Z,4.57
2018-05-29T04:08:51.012Z,4.50
2018-05-29T04:11:18.533Z,4.07
2018-05-29T04:13:46.007Z,4.57
2018-05-29T04:16:13.481Z,4.20
2018-05-29T04:18:42.269Z,4.33
2018-05-29T04:21:09.742Z,4.17
2018-05-29T04:23:37.758Z,4.70
2018-05-29T04:26:05.274Z,4.40
2018-05-29T04:28:33.860Z,5.10
2018-05-29T04:31:02.217Z,4.33
2018-05-29T04:33:30.209Z,4.30
2018-05-29T04:35:59.242Z,3.97
2018-05-29T04:38:26.806Z,4.37
2018-05-29T04:40:54.537Z,4.87
2018-05-29T04:43:22.982Z,4.83
2018-05-29T04:45:50.562Z,5.07
2018-05-29T04:48:18.060Z,4.67
2018-05-29T04:50:45.534Z,4.30
2018-05-29T04:53:13.024Z,4.73
2018-05-29T04:55:40.498Z,4.43
2018-05-29T04:58:08.732Z,5.17
2018-05-29T05:00:36.846Z,6.10
2018-05-29T05:03:04.415Z,4.73
2018-05-29T05:05:32.430Z,5.97
2018-05-29T05:08:00.027Z,4.53
2018-05-29T05:10:27.951Z,5.37
2018-05-29T05:12:55.502Z,5.10
2018-05-29T05:15:23.011Z,4.37
2018-05-29T05:17:51.861Z,5.40
2018-05-29T05:20:19.417Z,4.63
2018-05-29T05:22:46.869Z,4.90
2018-05-29T05:25:14.359Z,4.67
2018-05-29T05:27:41.823Z,4.90
2018-05-29T05:30:09.349Z,4.90
2018-05-29T05:32:36.911Z,5.20
2018-05-29T05:35:04.695Z,4.30
2018-05-29T05:37:36.023Z,5.07
2018-05-29T05:40:04.708Z,5.63
2018-05-29T05:42:32.528Z,5.30
2018-05-29T05:45:00.400Z,3.97
2018-05-29T05:47:28.132Z,5.40
2018-05-29T05:49:56.549Z,5.07
2018-05-29T05:52:24.047Z,4.73
2018-05-29T05:54:51.739Z,5.13
2018-05-29T05:57:19.354Z,4.63
2018-05-29T05:59:47.632Z,5.30
2018-05-29T06:02:15.123Z,4.53
2018-05-29T06:04:42.644Z,4.20
2018-05-29T06:07:10.154Z,4.20
2018-05-29T06:09:37.688Z,4.30
2018-05-29T06:12:06.318Z,4.40
2018-05-29T06:14:34.178Z,4.40
2018-05-29T06:17:02.085Z,5.07
2018-05-29T06:19:29.972Z,4.33
2018-05-29T06:21:57.750Z,5.00
2018-05-29T06:24:25.337Z,4.50
2018-05-29T06:26:53.607Z,4.90
2018-05-29T06:29:21.937Z,4.00
2018-05-29T06:31:49.595Z,3.97
2018-05-29T06:34:17.910Z,3.80
2018-05-29T06:36:45.415Z,3.53
2018-05-29T06:39:13.701Z,3.57
2018-05-29T06:41:41.224Z,3.77
2018-05-29T06:44:08.735Z,3.97
2018-05-29T06:46:36.378Z,4.50
2018-05-29T06:49:03.963Z,4.13
2018-05-29T06:51:32.651Z,4.03
2018-05-29T06:54:00.499Z,3.93
2018-05-29T06:56:29.321Z,4.70
2018-05-29T06:58:56.887Z,5.00
2018-05-29T07:01:24.528Z,4.50
2018-05-29T07:03:52.184Z,4.30
2018-05-29T07:06:19.786Z,4.70
2018-05-29T07:08:47.318Z,4.17
2018-05-29T07:11:14.824Z,4.67
2018-05-29T07:13:45.667Z,3.77
2018-05-29T07:16:13.199Z,3.73
2018-05-29T07:18:40.692Z,4.63
2018-05-29T07:21:08.201Z,3.83
2018-05-29T07:23:36.530Z,3.90
2018-05-29T07:26:04.363Z,3.73
2018-05-29T07:28:32.051Z,4.20
2018-05-29T07:30:59.771Z,3.57
2018-05-29T07:33:28.335Z,4.00
2018-05-29T07:35:55.891Z,3.57
2018-05-29T07:38:23.395Z,4.00
2018-05-29T07:40:50.968Z,2.97
2018-05-29T07:43:18.466Z,4.00
2018-05-29T07:45:45.973Z,3.13
2018-05-29T07:48:13.476Z,3.20
2018-05-29T07:50:41.768Z,3.20
2018-05-29T07:53:10.106Z,3.10
2018-05-29T07:55:37.764Z,3.10
2018-05-29T07:58:05.499Z,3.87
2018-05-29T08:00:33.333Z,3.43
2018-05-29T08:03:01.107Z,3.20
2018-05-29T08:05:29.827Z,3.27
2018-05-29T08:07:57.579Z,2.53
2018-05-29T08:10:25.261Z,3.20
2018-05-29T08:12:52.975Z,3.40
2018-05-29T08:15:20.578Z,3.07
2018-05-29T08:17:48.144Z,3.10
2018-05-29T08:20:15.644Z,3.33
2018-05-29T08:22:43.137Z,2.87
2018-05-29T08:25:11.419Z,3.40
2018-05-29T08:27:38.953Z,3.33
2018-05-29T08:30:06.512Z,4.40
2018-05-29T08:32:34.222Z,3.73
2018-05-29T08:35:02.852Z,3.40
2018-05-29T08:37:30.702Z,3.43
2018-05-29T08:39:59.324Z,3.70
2018-05-29T08:42:27.001Z,3.20
2018-05-29T08:44:54.670Z,3.30
2018-05-29T08:47:22.240Z,3.00
2018-05-29T08:49:50.690Z,3.33
2018-05-29T08:52:18.296Z,3.13
2018-05-29T08:54:45.780Z,3.47
2018-05-29T08:57:13.274Z,3.00
2018-05-29T08:59:40.803Z,3.10
2018-05-29T09:02:09.116Z,3.03
2018-05-29T09:04:36.734Z,3.30
2018-05-29T09:07:04.429Z,2.97
2018-05-29T09:09:33.091Z,2.80
2018-05-29T09:12:01.031Z,2.67
2018-05-29T09:14:29.124Z,3.10
2018-05-29T09:16:56.724Z,3.40
2018-05-29T09:19:24.375Z,3.80
2018-05-29T09:21:51.996Z,2.90
2018-05-29T09:24:19.543Z,2.60
2018-05-29T09:26:47.086Z,3.07
2018-05-29T09:29:14.578Z,2.60
2018-05-29T09:31:42.852Z,2.40
2018-05-29T09:34:10.372Z,2.47
2018-05-29T09:36:38.686Z,2.40
2018-05-29T09:39:06.322Z,2.67
2018-05-29T09:41:34.180Z,2.30
2018-05-29T09:44:01.898Z,2.87
2018-05-29T09:46:29.967Z,3.00
2018-05-29T09:48:58.895Z,2.90
2018-05-29T09:51:26.491Z,2.80
2018-05-29T09:53:54.002Z,2.50
2018-05-29T09:56:22.328Z,2.90
2018-05-29T09:58:50.110Z,2.60
2018-05-29T10:01:18.417Z,2.90
2018-05-29T10:03:46.698Z,3.00
2018-05-29T10:06:14.187Z,2.73
2018-05-29T10:08:42.542Z,2.80
2018-05-29T10:11:10.046Z,2.50
2018-05-29T10:13:38.748Z,3.03
2018-05-29T10:16:06.330Z,3.30
2018-05-29T10:18:34.717Z,2.43
2018-05-29T10:21:02.781Z,3.20
2018-05-29T10:23:30.945Z,2.70
2018-05-29T10:25:59.846Z,2.77
2018-05-29T10:28:27.826Z,2.90
2018-05-29T10:30:55.644Z,3.50
2018-05-29T10:33:23.123Z,2.73
2018-05-29T10:35:50.763Z,2.50
2018-05-29T10:38:18.403Z,2.73
2018-05-29T10:40:46.003Z,2.93
2018-05-29T10:43:13.517Z,2.57
2018-05-29T10:45:41.015Z,2.60
2018-05-29T10:48:08.524Z,2.40
2018-05-29T10:50:36.167Z,2.70
2018-05-29T10:53:03.904Z,2.77
2018-05-29T10:55:31.859Z,2.07
2018-05-29T10:58:00.039Z,2.90
2018-05-29T11:00:28.192Z,2.27
2018-05-29T11:02:56.606Z,2.80
2018-05-29T11:05:24.127Z,2.40
2018-05-29T11:07:52.523Z,2.90
2018-05-29T11:10:20.081Z,2.87
2018-05-29T11:12:47.599Z,2.07
2018-05-29T11:15:15.101Z,2.30
2018-05-29T11:17:42.600Z,2.47
2018-05-29T11:20:10.120Z,2.93
2018-05-29T11:22:37.601Z,2.43
2018-05-29T11:25:05.186Z,2.60
2018-05-29T11:27:33.035Z,2.27
2018-05-29T11:30:01.055Z,2.40
2018-05-29T11:32:29.803Z,2.40
2018-05-29T11:34:58.411Z,2.13
2018-05-29T11:37:25.979Z,2.50
2018-05-29T11:39:53.468Z,3.00
2018-05-29T11:42:21.098Z,2.60
2018-05-29T11:44:48.652Z,2.63
2018-05-29T11:47:16.330Z,2.40
2018-05-29T11:49:44.595Z,2.27
2018-05-29T11:52:12.121Z,2.00
2018-05-29T11:54:40.779Z,1.73
2018-05-29T11:57:08.320Z,2.57
2018-05-29T11:59:36.628Z,2.10
2018-05-29T12:02:05.007Z,2.33
2018-05-29T12:04:32.932Z,2.60
2018-05-29T12:07:01.288Z,2.23
2018-05-29T12:09:30.093Z,2.20
2018-05-29T12:12:10.468Z,2.07
2018-05-29T12:14:37.948Z,2.07
2018-05-29T12:17:05.475Z,2.13
2018-05-29T12:19:33.954Z,2.43
2018-05-29T12:22:01.915Z,1.90
2018-05-29T12:24:30.247Z,1.90
2018-05-29T12:26:59.504Z,2.37
2018-05-29T12:29:28.315Z,2.40
2018-05-29T12:31:55.863Z,2.37
2018-05-29T12:34:23.414Z,2.10
2018-05-29T12:36:51.043Z,2.07
2018-05-29T12:39:18.582Z,2.13
2018-05-29T12:41:46.964Z,2.00
2018-05-29T12:44:15.245Z,2.27
2018-05-29T12:46:42.735Z,1.97
2018-05-29T12:49:10.250Z,1.80
2018-05-29T12:51:37.754Z,2.10
2018-05-29T12:54:05.420Z,2.20
2018-05-29T12:56:33.240Z,1.80
2018-05-29T12:59:01.242Z,1.90
2018-05-29T13:01:29.125Z,2.40
2018-05-29T13:03:56.643Z,2.07
2018-05-29T13:06:24.131Z,2.10
2018-05-29T13:08:51.756Z,2.00
2018-05-29T13:11:20.260Z,2.00
2018-05-29T13:13:48.512Z,1.93
2018-05-29T13:16:15.995Z,1.60
2018-05-29T13:18:43.534Z,1.83
2018-05-29T13:21:11.031Z,2.00
2018-05-29T13:23:38.950Z,2.30
2018-05-29T13:26:06.576Z,2.20
2018-05-29T13:28:34.938Z,2.37
2018-05-29T13:31:03.446Z,2.40
2018-05-29T13:33:31.271Z,2.30
2018-05-29T13:35:59.540Z,2.60
2018-05-29T13:38:27.229Z,2.07
2018-05-29T13:40:54.749Z,2.20
2018-05-29T13:43:23.027Z,2.30
2018-05-29T13:45:50.706Z,2.00
2018-05-29T13:48:18.296Z,2.27
2018-05-29T13:50:45.775Z,2.30
2018-05-29T13:53:13.280Z,2.23
2018-05-29T13:55:41.545Z,2.60
2018-05-29T13:58:10.472Z,2.20
2018-05-29T14:00:38.018Z,2.17
2018-05-29T14:03:08.139Z,2.00
2018-05-29T14:05:35.775Z,1.83
2018-05-29T14:08:04.305Z,2.70
2018-05-29T14:10:32.072Z,2.20
2018-05-29T14:12:59.827Z,2.20
2018-05-29T14:15:28.656Z,1.97
2018-05-29T14:17:57.312Z,2.20
2018-05-29T14:20:25.034Z,2.30
2018-05-29T14:22:53.590Z,2.50
2018-05-29T14:25:21.203Z,2.07
2018-05-29T14:27:48.792Z,2.30
2018-05-29T14:30:16.387Z,2.73
2018-05-29T14:32:43.893Z,2.10
2018-05-29T14:35:11.424Z,2.20
2018-05-29T14:37:39.688Z,2.40
2018-05-29T14:40:07.335Z,2.50
2018-05-29T14:42:35.023Z,2.00
2018-05-29T14:45:02.645Z,2.20
2018-05-29T14:47:30.376Z,2.30
2018-05-29T14:49:58.056Z,2.13
2018-05-29T14:52:26.364Z,3.23
2018-05-29T14:54:53.859Z,2.50
2018-05-29T14:57:21.470Z,2.00
2018-05-29T14:59:49.000Z,2.10
2018-05-29T15:02:18.408Z,2.20
2018-05-29T15:04:45.937Z,2.10
2018-05-29T15:07:14.224Z,2.50
2018-05-29T15:09:41.784Z,2.00
2018-05-29T15:12:09.307Z,2.10
2018-05-29T15:14:37.645Z,2.33
2018-05-29T15:17:05.207Z,2.23
2018-05-29T15:19:32.777Z,2.20
2018-05-29T15:22:01.214Z,2.40
2018-05-29T15:24:28.899Z,1.80
2018-05-29T15:26:56.415Z,2.00
2018-05-29T15:29:23.895Z,2.27
2018-05-29T15:31:51.362Z,1.87
2018-05-29T15:34:18.852Z,2.20
2018-05-29T15:36:46.306Z,2.17
2018-05-29T15:39:13.788Z,2.00
2018-05-29T15:41:41.253Z,2.13
2018-05-29T15:44:09.489Z,2.53
2018-05-29T15:46:36.953Z,2.40
2018-05-29T15:49:04.444Z,2.30
2018-05-29T15:51:31.971Z,2.47
2018-05-29T15:53:59.596Z,2.37
2018-05-29T15:56:27.189Z,2.40
2018-05-29T15:58:56.236Z,2.10
2018-05-29T16:01:23.711Z,2.23
2018-05-29T16:03:51.208Z,2.17
2018-05-29T16:06:18.715Z,2.33
2018-05-29T16:08:47.036Z,2.30
2018-05-29T16:11:14.521Z,2.10
2018-05-29T16:13:41.978Z,2.20
2018-05-29T16:16:09.450Z,2.33
2018-05-29T16:18:36.935Z,1.90
2018-05-29T16:21:04.455Z,2.13
2018-05-29T16:23:32.126Z,2.20
2018-05-29T16:25:59.830Z,2.37
2018-05-29T16:28:27.343Z,2.03
2018-05-29T16:30:55.089Z,2.17
2018-05-29T16:33:22.695Z,2.23
2018-05-29T16:35:50.938Z,1.80
2018-05-29T16:38:18.411Z,2.37
2018-05-29T16:40:45.986Z,2.33
2018-05-29T16:43:13.419Z,2.33
2018-05-29T16:45:41.018Z,2.20
2018-05-29T16:48:08.559Z,2.30
2018-05-29T16:50:36.143Z,2.50
2018-05-29T16:53:04.185Z,2.30
2018-05-29T16:55:33.103Z,2.60
2018-05-29T16:58:00.757Z,2.00
2018-05-29T17:00:30.507Z,2.07
2018-05-29T17:02:58.698Z,2.67
2018-05-29T17:05:26.231Z,1.70
2018-05-29T17:07:53.736Z,2.60
2018-05-29T17:10:21.207Z,2.57
2018-05-29T17:12:48.709Z,2.13
2018-05-29T17:15:16.347Z,2.17
2018-05-29T17:17:43.753Z,2.20
2018-05-29T17:20:12.035Z,2.17
2018-05-29T17:22:40.316Z,2.40
2018-05-29T17:25:07.872Z,2.30
2018-05-29T17:27:37.470Z,1.97
2018-05-29T17:30:04.998Z,2.00
2018-05-29T17:32:32.720Z,2.20
2018-05-29T17:35:00.655Z,2.20
2018-05-29T17:37:28.508Z,2.30
2018-05-29T17:39:56.003Z,2.40
2018-05-29T17:42:24.259Z,2.20
2018-05-29T17:44:51.906Z,2.00
2018-05-29T17:47:19.415Z,1.83
2018-05-29T17:49:46.874Z,2.67
2018-05-29T17:52:14.427Z,2.47
2018-05-29T17:54:44.643Z,2.67
2018-05-29T17:57:12.156Z,2.07
2018-05-29T17:59:39.732Z,1.97
2018-05-29T18:02:08.096Z,2.57
2018-05-29T18:04:35.852Z,2.57
2018-05-29T18:07:03.425Z,1.90
2018-05-29T18:09:31.334Z,2.37
2018-05-29T18:11:59.167Z,2.40
2018-05-29T18:14:26.679Z,2.90
2018-05-29T18:16:56.269Z,2.07
2018-05-29T18:19:23.835Z,1.97
2018-05-29T18:21:51.407Z,2.57
2018-05-29T18:24:18.907Z,2.33
2018-05-29T18:26:49.146Z,1.87
2018-05-29T18:29:21.242Z,2.33
2018-05-29T18:31:49.531Z,2.10
2018-05-29T18:34:17.815Z,2.40
2018-05-29T18:36:46.100Z,2.10
2018-05-29T18:39:13.638Z,2.37
2018-05-29T18:41:41.895Z,2.60
2018-05-29T18:44:09.565Z,2.40
2018-05-29T18:46:37.203Z,2.33
2018-05-29T18:49:04.775Z,2.20
2018-05-29T18:51:32.839Z,2.13
2018-05-29T18:54:00.500Z,2.43
2018-05-29T18:56:28.265Z,2.60
2018-05-29T18:58:55.942Z,2.23
2018-05-29T19:01:28.205Z,2.50
2018-05-29T19:03:55.816Z,2.53
2018-05-29T19:06:23.371Z,2.60
2018-05-29T19:08:50.900Z,2.50
2018-05-29T19:11:18.391Z,2.30
2018-05-29T19:13:45.910Z,2.37
2018-05-29T19:16:13.438Z,2.27
2018-05-29T19:18:40.988Z,2.90
2018-05-29T19:21:09.303Z,2.90
2018-05-29T19:23:36.959Z,2.73
2018-05-29T19:26:04.620Z,2.97
2018-05-29T19:28:32.579Z,3.10
2018-05-29T19:31:00.293Z,3.10
2018-05-29T19:33:29.070Z,3.30
2018-05-29T19:35:56.779Z,2.80
2018-05-29T19:38:24.340Z,3.03
2018-05-29T19:40:52.099Z,2.90
2018-05-29T19:43:20.388Z,2.50
2018-05-29T19:45:47.866Z,3.00
2018-05-29T19:48:15.364Z,3.00
2018-05-29T19:50:43.643Z,2.80
2018-05-29T19:53:11.158Z,3.07
2018-05-29T19:55:39.460Z,2.40
2018-05-29T19:58:07.068Z,3.03
2018-05-29T20:00:34.699Z,3.13
2018-05-29T20:03:02.441Z,2.67
2018-05-29T20:05:30.474Z,3.20
2018-05-29T20:07:59.845Z,2.83
2018-05-29T20:10:28.627Z,3.20
2018-05-29T20:12:56.265Z,3.33
2018-05-29T20:15:23.785Z,3.17
2018-05-29T20:17:51.308Z,3.13
2018-05-29T20:20:19.603Z,2.90
2018-05-29T20:22:47.109Z,3.10
2018-05-29T20:25:15.497Z,3.57
2018-05-29T20:27:42.980Z,3.50
2018-05-29T20:30:14.020Z,3.40
2018-05-29T20:32:44.671Z,3.40
2018-05-29T20:35:12.176Z,3.33
2018-05-29T20:37:40.475Z,3.00
2018-05-29T20:40:08.116Z,3.67
2018-05-29T20:42:35.737Z,3.23
2018-05-29T20:45:04.166Z,3.73
2018-05-29T20:47:33.149Z,3.10
2018-05-29T20:50:01.266Z,3.30
2018-05-29T20:52:29.895Z,3.90
2018-05-29T20:54:57.631Z,3.23
2018-05-29T20:57:25.324Z,4.10
2018-05-29T20:59:53.129Z,4.43
2018-05-29T21:02:21.964Z,3.70
2018-05-29T21:04:50.545Z,4.20
2018-05-29T21:07:18.949Z,4.23
2018-05-29T21:09:46.572Z,3.50
2018-05-29T21:12:14.082Z,4.10
2018-05-29T21:14:41.587Z,4.03
2018-05-29T21:17:09.148Z,3.83
2018-05-29T21:19:36.908Z,4.43
2018-05-29T21:22:04.763Z,4.10
2018-05-29T21:24:32.889Z,4.70
2018-05-29T21:27:01.832Z,4.50
2018-05-29T21:29:30.143Z,4.37
2018-05-29T21:31:58.119Z,4.33
2018-05-29T21:34:25.908Z,4.20
2018-05-29T21:36:53.387Z,4.23
2018-05-29T21:39:21.214Z,3.83
2018-05-29T21:41:48.727Z,4.70
2018-05-29T21:44:16.217Z,3.67
2018-05-29T21:46:43.759Z,3.83
2018-05-29T21:49:12.030Z,4.73
2018-05-29T21:51:39.507Z,4.77
2018-05-29T21:54:07.277Z,4.67
2018-05-29T21:56:35.286Z,5.13
2018-05-29T21:59:04.307Z,4.83
2018-05-29T22:01:32.701Z,4.87
2018-05-29T22:04:04.180Z,5.23
2018-05-29T22:06:32.411Z,4.77
2018-05-29T22:09:01.196Z,4.07
2018-05-29T22:11:30.295Z,4.50
2018-05-29T22:13:59.295Z,4.43
2018-05-29T22:16:29.795Z,3.87
2018-05-29T22:18:59.219Z,3.97
2018-05-29T22:21:27.003Z,3.50
2018-05-29T22:23:54.859Z,4.17
2018-05-29T22:26:23.283Z,4.30
2018-05-29T22:28:51.016Z,5.13
2018-05-29T22:31:18.638Z,5.00
2018-05-29T22:33:46.905Z,5.17
2018-05-29T22:36:14.370Z,4.40
2018-05-29T22:38:41.830Z,5.47
2018-05-29T22:41:09.311Z,3.70
2018-05-29T22:43:36.855Z,4.03
2018-05-29T22:46:04.737Z,4.03
2018-05-29T22:48:32.586Z,3.57
2018-05-29T22:51:00.793Z,4.20
2018-05-29T22:53:30.334Z,3.50
2018-05-29T22:55:58.155Z,3.60
2018-05-29T22:58:25.902Z,3.90
2018-05-29T23:00:53.381Z,4.50
2018-05-29T23:03:21.735Z,3.40
2018-05-29T23:05:49.305Z,3.07
2018-05-29T23:08:16.866Z,3.40
2018-05-29T23:10:44.334Z,3.87
2018-05-29T23:13:11.798Z,3.13
2018-05-29T23:15:40.040Z,3.10
2018-05-29T23:18:07.507Z,2.80
2018-05-29T23:20:35.123Z,3.17
2018-05-29T23:23:03.343Z,3.90
2018-05-29T23:25:32.617Z,3.80
2018-05-29T23:28:00.706Z,3.70
2018-05-29T23:30:28.809Z,3.60
2018-05-29T23:32:56.533Z,3.90
2018-05-29T23:35:24.010Z,3.47
2018-05-29T23:37:51.912Z,4.00
2018-05-29T23:40:19.526Z,4.07
2018-05-29T23:42:47.191Z,4.00
2018-05-29T23:45:14.677Z,4.20
2018-05-29T23:47:42.150Z,4.90
2018-05-29T23:50:09.627Z,4.27
2018-05-29T23:52:37.222Z,4.07
2018-05-29T23:55:04.846Z,4.87
2018-05-29T23:57:33.498Z,4.73
